Tarawa Terrace, NC (28543)

9:06 AM EDT on September 22, 2014 (GMT -0400)
Western Blvd | Change Station
CLOSE
Current Station
Personal Weather Station
Location: Jacksonville, NC
Elevation: 33 ft
Nearby Weather Stations

Elev 33 ft 34.76 °N, 77.38 °W | Updated 4 minutes ago

Partly Cloudy
Partly Cloudy
74.3 °F
Feels Like 75 °F
N
0.0
Wind Variable Wind from North
Gusts 0.0 mph

Today
High -- | Low -- °F
--% Chance of Precip.
Yesterday
High -- | Low -- °F
Precip. -- in
6:57 AM 7:06 PM
Waning Crescent, 3% visible
Pressure 29.99 in
Visibility 10.0 miles
Clouds Clear
Heat Index 75 °F
Dew Point 67 °F
Humidity 79%
Rainfall -999.00 in
Snow Depth Not available.
UV 1.2 out of 12
Pollen 7.00 out of 12
Air Quality Not available.
Flu Activity Not available.
METAR KNCA 221256Z AUTO 35007KT 10SM CLR 23/18 A2998 RMK AO2 SLP154 T02330178

More Conditions Fewer Conditions

Pressure 29.99 in
Visibility 10.0 miles
Clouds Clear
Heat Index 75 °F
Dew Point 67 °F
Humidity 79%
Rainfall -999.00 in
Snow Depth Not available.
UV 1.2 out of 12
Pollen 7.00 out of 12
Air Quality Not available.
Flu Activity Not available.
METAR KNCA 221256Z AUTO 35007KT 10SM CLR 23/18 A2998 RMK AO2 SLP154 T02330178

More Conditions Fewer Conditions

10-Day Weather Forecast

Almanac

Astronomy

Sep. 22, 2014 Rise Set
Actual Time 6:57 AM EDT 7:06 PM EDT
Civil Twilight 6:32 AM EDT 7:31 PM EDT
Nautical Twilight 6:02 AM EDT 8:00 PM EDT
Astronomical Twilight 5:33 AM EDT 8:30 PM EDT
Moon 5:26 AM EDT 6:11 PM EDT
Length of Visible Light 12h 59m
Length of Day
12h 08m
Tomorrow will be 2m 9s shorter.
Waning Crescent, 3% of the Moon is Illuminated
Today
Waning Crescent
Sep 24
New
Oct 1
First Quarter
Oct 8
Full
Oct 15
Last Quarter

Today's Extremes

State Highs State Lows

Community

WunderPhotos

Upload Photos

1,755,419 photos uploaded!

Nearby

Snow Depth

Station Depth Elevation
No new snow has been reported.

Earthquake Activity

City Distance Mag. Time & Date
No recent earthquake activity has been reported nearby.
Minimum magnitude displayed is 2.5.

Coastal Water Temperatures

Place Temperature
Beaufort, NC 75.0 °F
Johnny Mercer Pier, Wrightsville Beach, NC 80.1 °F
Hatteras, NC 73.9 °F
Oregon Inlet Marina, NC 75.0 °F

Nearby Weather Stations